sensor_id;sensor_type;location;lat;lon;timestamp;pressure;altitude;pressure_sealevel;temperature;humidity
70468;BME280;57934;51.532;7.684;2022-10-16T00:01:30;99926.75;;;13.02;98.09
70468;BME280;57934;51.532;7.684;2022-10-16T00:03:58;99916.75;;;13.04;98.18
70468;BME280;57934;51.532;7.684;2022-10-16T00:06:26;99915.94;;;13.04;98.07
70468;BME280;57934;51.532;7.684;2022-10-16T00:08:52;99914.09;;;13.04;98.11
70468;BME280;57934;51.532;7.684;2022-10-16T00:13:48;99913.28;;;13.04;97.98
70468;BME280;57934;51.532;7.684;2022-10-16T00:16:16;99918.34;;;13.05;97.86
70468;BME280;57934;51.532;7.684;2022-10-16T00:18:42;99914.91;;;13.05;97.76
70468;BME280;57934;51.532;7.684;2022-10-16T00:21:29;99910.88;;;13.02;97.67
70468;BME280;57934;51.532;7.684;2022-10-16T00:24:04;99926.75;;;13.02;97.80
70468;BME280;57934;51.532;7.684;2022-10-16T00:26:32;99923.28;;;13.02;97.58
70468;BME280;57934;51.532;7.684;2022-10-16T00:29:00;99923.13;;;12.97;97.66
70468;BME280;57934;51.532;7.684;2022-10-16T00:31:26;99921.47;;;13.02;97.77
70468;BME280;57934;51.532;7.684;2022-10-16T00:33:52;99924.31;;;13.01;97.51
70468;BME280;57934;51.532;7.684;2022-10-16T00:36:21;99915.56;;;13.00;97.21
70468;BME280;57934;51.532;7.684;2022-10-16T00:38:50;99921.09;;;12.99;97.17
70468;BME280;57934;51.532;7.684;2022-10-16T00:41:18;99927.75;;;13.01;96.92
70468;BME280;57934;51.532;7.684;2022-10-16T00:43:56;99929.59;;;13.01;97.03
70468;BME280;57934;51.532;7.684;2022-10-16T00:46:25;99922.91;;;12.98;96.71
70468;BME280;57934;51.532;7.684;2022-10-16T00:49:13;99928.41;;;12.97;96.75
70468;BME280;57934;51.532;7.684;2022-10-16T00:51:44;99932.09;;;12.96;96.67
70468;BME280;57934;51.532;7.684;2022-10-16T00:54:19;99931.13;;;12.90;96.64
70468;BME280;57934;51.532;7.684;2022-10-16T00:56:47;99930.53;;;12.88;96.85
70468;BME280;57934;51.532;7.684;2022-10-16T00:59:26;99938.03;;;12.91;97.02
70468;BME280;57934;51.532;7.684;2022-10-16T01:01:53;99928.47;;;12.90;96.76
70468;BME280;57934;51.532;7.684;2022-10-16T01:04:21;99923.63;;;12.87;96.87
70468;BME280;57934;51.532;7.684;2022-10-16T01:07:00;99919.78;;;12.83;96.91
70468;BME280;57934;51.532;7.684;2022-10-16T01:09:54;99926.31;;;12.80;96.80
70468;BME280;57934;51.532;7.684;2022-10-16T01:12:39;99931.41;;;12.82;96.96
70468;BME280;57934;51.532;7.684;2022-10-16T01:15:26;99919.41;;;12.79;96.98
70468;BME280;57934;51.532;7.684;2022-10-16T01:20:29;99926.97;;;12.76;96.89
70468;BME280;57934;51.532;7.684;2022-10-16T01:23:18;99935.72;;;12.76;96.81
70468;BME280;57934;51.532;7.684;2022-10-16T01:28:26;99935.50;;;12.78;96.66
70468;BME280;57934;51.532;7.684;2022-10-16T01:30:57;99936.53;;;12.77;96.39
70468;BME280;57934;51.532;7.684;2022-10-16T01:33:35;99945.25;;;12.77;96.30
70468;BME280;57934;51.532;7.684;2022-10-16T01:36:14;99948.13;;;12.76;95.86
70468;BME280;57934;51.532;7.684;2022-10-16T01:38:43;99964.81;;;12.76;96.18
70468;BME280;57934;51.532;7.684;2022-10-16T01:41:17;99963.59;;;12.79;96.43
70468;BME280;57934;51.532;7.684;2022-10-16T01:44:11;99957.91;;;12.75;96.24
70468;BME280;57934;51.532;7.684;2022-10-16T01:46:41;99950.41;;;12.72;95.94
70468;BME280;57934;51.532;7.684;2022-10-16T01:49:09;99948.13;;;12.76;96.29
70468;BME280;57934;51.532;7.684;2022-10-16T01:51:36;99942.47;;;12.72;96.23
70468;BME280;57934;51.532;7.684;2022-10-16T01:54:05;99933.13;;;12.70;96.19
70468;BME280;57934;51.532;7.684;2022-10-16T01:56:33;99941.84;;;12.70;96.40
70468;BME280;57934;51.532;7.684;2022-10-16T01:59:06;99928.25;;;12.66;96.37
70468;BME280;57934;51.532;7.684;2022-10-16T02:01:35;99937.03;;;12.67;96.29
70468;BME280;57934;51.532;7.684;2022-10-16T02:04:16;99929.28;;;12.65;96.65
70468;BME280;57934;51.532;7.684;2022-10-16T02:06:43;99930.91;;;12.66;96.43
70468;BME280;57934;51.532;7.684;2022-10-16T02:09:10;99937.06;;;12.60;96.56
70468;BME280;57934;51.532;7.684;2022-10-16T02:11:36;99943.16;;;12.61;96.50
70468;BME280;57934;51.532;7.684;2022-10-16T02:14:05;99930.53;;;12.63;96.92
70468;BME280;57934;51.532;7.684;2022-10-16T02:16:39;99930.75;;;12.61;96.68
70468;BME280;57934;51.532;7.684;2022-10-16T02:19:06;99938.69;;;12.61;96.88
70468;BME280;57934;51.532;7.684;2022-10-16T02:21:42;99943.78;;;12.56;96.76
70468;BME280;57934;51.532;7.684;2022-10-16T02:24:39;99943.38;;;12.59;96.98
70468;BME280;57934;51.532;7.684;2022-10-16T02:27:13;99935.44;;;12.59;96.73
70468;BME280;57934;51.532;7.684;2022-10-16T02:29:46;99939.50;;;12.62;96.59
70468;BME280;57934;51.532;7.684;2022-10-16T02:32:20;99960.28;;;12.58;96.72
70468;BME280;57934;51.532;7.684;2022-10-16T02:34:48;99954.22;;;12.51;96.89
70468;BME280;57934;51.532;7.684;2022-10-16T02:37:16;99947.75;;;12.47;97.34
70468;BME280;57934;51.532;7.684;2022-10-16T02:39:44;99945.91;;;12.48;97.39
70468;BME280;57934;51.532;7.684;2022-10-16T02:42:14;99941.41;;;12.48;97.46
70468;BME280;57934;51.532;7.684;2022-10-16T02:44:40;99948.09;;;12.57;96.96
70468;BME280;57934;51.532;7.684;2022-10-16T02:47:06;99948.13;;;12.51;96.86
70468;BME280;57934;51.532;7.684;2022-10-16T02:49:32;99955.25;;;12.50;96.93
70468;BME280;57934;51.532;7.684;2022-10-16T02:51:58;99954.22;;;12.51;96.87
70468;BME280;57934;51.532;7.684;2022-10-16T02:54:24;99954.44;;;12.50;97.11
70468;BME280;57934;51.532;7.684;2022-10-16T02:56:50;99951.56;;;12.51;96.93
70468;BME280;57934;51.532;7.684;2022-10-16T02:59:17;99946.50;;;12.50;96.66
70468;BME280;57934;51.532;7.684;2022-10-16T03:01:44;99948.94;;;12.51;96.80
70468;BME280;57934;51.532;7.684;2022-10-16T03:04:10;99951.34;;;12.53;96.67
70468;BME280;57934;51.532;7.684;2022-10-16T03:06:36;99947.03;;;12.58;96.81
70468;BME280;57934;51.532;7.684;2022-10-16T03:09:02;99948.84;;;12.64;96.27
70468;BME280;57934;51.532;7.684;2022-10-16T03:15:17;99944.09;;;12.73;95.65
70468;BME280;57934;51.532;7.684;2022-10-16T03:17:43;99945.72;;;12.74;95.56
70468;BME280;57934;51.532;7.684;2022-10-16T03:20:10;99953.44;;;12.76;95.02
70468;BME280;57934;51.532;7.684;2022-10-16T03:22:36;99955.03;;;12.77;95.00
70468;BME280;57934;51.532;7.684;2022-10-16T03:25:02;99956.44;;;12.79;94.77
70468;BME280;57934;51.532;7.684;2022-10-16T03:27:28;99959.47;;;12.83;94.81
70468;BME280;57934;51.532;7.684;2022-10-16T03:29:54;99964.16;;;12.81;94.57
70468;BME280;57934;51.532;7.684;2022-10-16T03:32:20;99960.94;;;12.79;94.67
70468;BME280;57934;51.532;7.684;2022-10-16T03:34:47;99958.88;;;12.81;94.66
70468;BME280;57934;51.532;7.684;2022-10-16T03:37:13;99951.13;;;12.86;94.61
70468;BME280;57934;51.532;7.684;2022-10-16T03:39:39;99948.47;;;12.86;94.37
70468;BME280;57934;51.532;7.684;2022-10-16T03:42:06;99942.56;;;12.84;94.59
70468;BME280;57934;51.532;7.684;2022-10-16T03:44:32;99946.47;;;12.81;94.37
70468;BME280;57934;51.532;7.684;2022-10-16T03:46:58;99941.75;;;12.83;94.58
70468;BME280;57934;51.532;7.684;2022-10-16T03:49:24;99941.56;;;12.85;94.57
70468;BME280;57934;51.532;7.684;2022-10-16T03:51:50;99935.25;;;12.86;94.55
70468;BME280;57934;51.532;7.684;2022-10-16T03:54:16;99940.69;;;12.91;94.30
70468;BME280;57934;51.532;7.684;2022-10-16T03:56:42;99955.53;;;12.92;93.80
70468;BME280;57934;51.532;7.684;2022-10-16T03:59:08;99952.66;;;12.94;93.63
70468;BME280;57934;51.532;7.684;2022-10-16T04:01:34;99957.59;;;12.90;93.49
70468;BME280;57934;51.532;7.684;2022-10-16T04:04:00;99958.19;;;12.92;93.20
70468;BME280;57934;51.532;7.684;2022-10-16T04:06:26;99955.31;;;12.94;92.77
70468;BME280;57934;51.532;7.684;2022-10-16T04:08:52;99963.69;;;12.90;92.44
70468;BME280;57934;51.532;7.684;2022-10-16T04:11:19;99967.38;;;12.89;92.45
70468;BME280;57934;51.532;7.684;2022-10-16T04:13:45;99959.84;;;12.86;92.41
70468;BME280;57934;51.532;7.684;2022-10-16T04:16:11;99957.22;;;12.86;92.19
70468;BME280;57934;51.532;7.684;2022-10-16T04:18:37;99955.38;;;12.87;91.90
70468;BME280;57934;51.532;7.684;2022-10-16T04:21:04;99955.00;;;12.83;91.89
70468;BME280;57934;51.532;7.684;2022-10-16T04:23:31;99968.28;;;12.77;92.19
70468;BME280;57934;51.532;7.684;2022-10-16T04:25:57;99969.91;;;12.78;91.96
70468;BME280;57934;51.532;7.684;2022-10-16T04:28:23;99969.31;;;12.76;91.77
70468;BME280;57934;51.532;7.684;2022-10-16T04:30:49;99988.47;;;12.71;92.42
70468;BME280;57934;51.532;7.684;2022-10-16T04:33:15;99990.31;;;12.71;92.21
70468;BME280;57934;51.532;7.684;2022-10-16T04:35:41;99991.56;;;12.68;92.50
70468;BME280;57934;51.532;7.684;2022-10-16T04:38:07;99990.34;;;12.64;92.35
70468;BME280;57934;51.532;7.684;2022-10-16T04:40:34;99984.22;;;12.63;92.42
70468;BME280;57934;51.532;7.684;2022-10-16T04:43:03;99977.56;;;12.61;92.35
70468;BME280;57934;51.532;7.684;2022-10-16T04:45:29;99991.16;;;12.64;92.41
70468;BME280;57934;51.532;7.684;2022-10-16T04:47:59;99996.66;;;12.63;92.34
70468;BME280;57934;51.532;7.684;2022-10-16T04:50:25;100000.34;;;12.62;91.95
70468;BME280;57934;51.532;7.684;2022-10-16T04:53:05;100011.28;;;12.65;91.92
70468;BME280;57934;51.532;7.684;2022-10-16T04:55:32;100017.59;;;12.71;91.76
70468;BME280;57934;51.532;7.684;2022-10-16T04:57:58;100013.50;;;12.69;91.85
70468;BME280;57934;51.532;7.684;2022-10-16T05:00:24;100019.03;;;12.67;91.81
70468;BME280;57934;51.532;7.684;2022-10-16T05:02:50;100006.22;;;12.64;91.68
70468;BME280;57934;51.532;7.684;2022-10-16T05:05:17;100009.06;;;12.62;91.80
70468;BME280;57934;51.532;7.684;2022-10-16T05:07:46;100008.03;;;12.63;92.04
70468;BME280;57934;51.532;7.684;2022-10-16T05:10:12;100007.63;;;12.66;91.75
70468;BME280;57934;51.532;7.684;2022-10-16T05:12:38;100009.84;;;12.70;91.92
70468;BME280;57934;51.532;7.684;2022-10-16T05:15:05;100012.91;;;12.66;92.16
70468;BME280;57934;51.532;7.684;2022-10-16T05:17:31;100008.66;;;12.65;92.01
70468;BME280;57934;51.532;7.684;2022-10-16T05:19:57;100020.25;;;12.64;92.10
70468;BME280;57934;51.532;7.684;2022-10-16T05:22:23;100023.09;;;12.63;92.39
70468;BME280;57934;51.532;7.684;2022-10-16T05:24:49;100027.19;;;12.59;92.31
70468;BME280;57934;51.532;7.684;2022-10-16T05:27:15;100030.66;;;12.59;92.74
70468;BME280;57934;51.532;7.684;2022-10-16T05:29:48;100035.53;;;12.62;92.62
70468;BME280;57934;51.532;7.684;2022-10-16T05:32:15;100038.78;;;12.64;92.73
70468;BME280;57934;51.532;7.684;2022-10-16T05:34:42;100035.13;;;12.59;93.12
70468;BME280;57934;51.532;7.684;2022-10-16T05:37:08;100043.06;;;12.59;92.98
70468;BME280;57934;51.532;7.684;2022-10-16T05:39:34;100049.41;;;12.58;93.12
70468;BME280;57934;51.532;7.684;2022-10-16T05:42:00;100055.72;;;12.57;93.06
70468;BME280;57934;51.532;7.684;2022-10-16T05:44:26;100052.25;;;12.56;93.14
70468;BME280;57934;51.532;7.684;2022-10-16T05:46:53;100050.38;;;12.63;93.34
70468;BME280;57934;51.532;7.684;2022-10-16T05:49:19;100056.50;;;12.64;93.27
70468;BME280;57934;51.532;7.684;2022-10-16T05:51:45;100066.19;;;12.70;93.06
70468;BME280;57934;51.532;7.684;2022-10-16T05:54:11;100065.00;;;12.66;92.91
70468;BME280;57934;51.532;7.684;2022-10-16T05:56:37;100073.16;;;12.64;93.04
70468;BME280;57934;51.532;7.684;2022-10-16T05:59:03;100066.66;;;12.67;93.04
70468;BME280;57934;51.532;7.684;2022-10-16T06:01:30;100059.94;;;12.64;93.13
70468;BME280;57934;51.532;7.684;2022-10-16T06:03:57;100076.00;;;12.63;93.09
70468;BME280;57934;51.532;7.684;2022-10-16T06:06:28;100072.56;;;12.62;93.20
70468;BME280;57934;51.532;7.684;2022-10-16T06:08:56;100072.56;;;12.62;93.55
70468;BME280;57934;51.532;7.684;2022-10-16T06:11:25;100078.88;;;12.61;93.43
70468;BME280;57934;51.532;7.684;2022-10-16T06:13:53;100094.91;;;12.66;93.29
70468;BME280;57934;51.532;7.684;2022-10-16T06:16:20;100097.16;;;12.70;93.18
70468;BME280;57934;51.532;7.684;2022-10-16T06:18:46;100098.94;;;12.76;93.10
70468;BME280;57934;51.532;7.684;2022-10-16T06:21:17;100101.97;;;12.79;93.06
70468;BME280;57934;51.532;7.684;2022-10-16T06:23:44;100102.75;;;12.86;92.50
70468;BME280;57934;51.532;7.684;2022-10-16T06:26:15;100103.75;;;12.92;91.83
70468;BME280;57934;51.532;7.684;2022-10-16T06:28:42;100110.66;;;12.93;92.04
70468;BME280;57934;51.532;7.684;2022-10-16T06:31:09;100123.91;;;12.93;91.98
70468;BME280;57934;51.532;7.684;2022-10-16T06:33:36;100117.16;;;12.97;91.83
70468;BME280;57934;51.532;7.684;2022-10-16T06:36:07;100124.25;;;13.03;91.91
70468;BME280;57934;51.532;7.684;2022-10-16T06:38:35;100129.50;;;13.10;91.43
70468;BME280;57934;51.532;7.684;2022-10-16T06:41:01;100129.06;;;13.13;91.28
70468;BME280;57934;51.532;7.684;2022-10-16T06:43:31;100132.53;;;13.13;91.31
70468;BME280;57934;51.532;7.684;2022-10-16T06:45:59;100127.81;;;13.16;91.62
70468;BME280;57934;51.532;7.684;2022-10-16T06:48:26;100139.59;;;13.20;91.19
70468;BME280;57934;51.532;7.684;2022-10-16T06:53:23;100134.44;;;13.38;90.21
70468;BME280;57934;51.532;7.684;2022-10-16T06:55:49;100145.47;;;13.60;89.60
70468;BME280;57934;51.532;7.684;2022-10-16T06:58:17;100156.16;;;13.72;89.27
70468;BME280;57934;51.532;7.684;2022-10-16T07:00:43;100153.25;;;13.80;88.50
70468;BME280;57934;51.532;7.684;2022-10-16T07:03:09;100158.31;;;13.81;88.22
70468;BME280;57934;51.532;7.684;2022-10-16T07:05:39;100162.00;;;13.80;88.22
70468;BME280;57934;51.532;7.684;2022-10-16T07:08:06;100150.75;;;13.85;88.32
70468;BME280;57934;51.532;7.684;2022-10-16T07:10:33;100170.09;;;13.85;88.03
70468;BME280;57934;51.532;7.684;2022-10-16T07:12:59;100180.72;;;13.85;87.88
70468;BME280;57934;51.532;7.684;2022-10-16T07:15:26;100188.84;;;13.91;88.21
70468;BME280;57934;51.532;7.684;2022-10-16T07:17:52;100178.19;;;13.97;87.99
70468;BME280;57934;51.532;7.684;2022-10-16T07:20:18;100191.59;;;14.21;87.47
70468;BME280;57934;51.532;7.684;2022-10-16T07:22:44;100190.69;;;14.52;85.96
70468;BME280;57934;51.532;7.684;2022-10-16T07:25:10;100195.47;;;14.80;85.00
70468;BME280;57934;51.532;7.684;2022-10-16T07:27:38;100197.56;;;15.08;83.59
70468;BME280;57934;51.532;7.684;2022-10-16T07:30:05;100201.59;;;15.41;82.00
70468;BME280;57934;51.532;7.684;2022-10-16T07:32:31;100194.88;;;15.68;80.26
70468;BME280;57934;51.532;7.684;2022-10-16T07:34:58;100200.78;;;15.82;79.86
70468;BME280;57934;51.532;7.684;2022-10-16T07:37:24;100208.41;;;15.79;79.42
70468;BME280;57934;51.532;7.684;2022-10-16T07:39:50;100214.53;;;15.67;79.84
70468;BME280;57934;51.532;7.684;2022-10-16T07:42:16;100218.94;;;15.73;79.78
70468;BME280;57934;51.532;7.684;2022-10-16T07:44:42;100221.13;;;15.77;79.57
70468;BME280;57934;51.532;7.684;2022-10-16T07:47:09;100230.53;;;15.49;80.19
70468;BME280;57934;51.532;7.684;2022-10-16T07:49:35;100237.69;;;15.18;81.40
70468;BME280;57934;51.532;7.684;2022-10-16T07:52:01;100229.66;;;15.07;82.37
70468;BME280;57934;51.532;7.684;2022-10-16T07:54:27;100226.09;;;15.13;82.75
70468;BME280;57934;51.532;7.684;2022-10-16T07:56:53;100236.34;;;15.27;81.98
70468;BME280;57934;51.532;7.684;2022-10-16T07:59:19;100230.63;;;15.42;81.31
70468;BME280;57934;51.532;7.684;2022-10-16T08:01:45;100239.31;;;15.49;81.20
70468;BME280;57934;51.532;7.684;2022-10-16T08:04:11;100241.47;;;15.71;79.87
70468;BME280;57934;51.532;7.684;2022-10-16T08:06:39;100242.06;;;15.96;79.26
70468;BME280;57934;51.532;7.684;2022-10-16T08:09:06;100246.13;;;15.87;78.98
70468;BME280;57934;51.532;7.684;2022-10-16T08:11:33;100252.34;;;15.51;80.23
70468;BME280;57934;51.532;7.684;2022-10-16T08:13:59;100257.38;;;16.01;79.24
70468;BME280;57934;51.532;7.684;2022-10-16T08:16:25;100257.56;;;17.51;75.32
70468;BME280;57934;51.532;7.684;2022-10-16T08:18:51;100266.38;;;19.62;67.24
70468;BME280;57934;51.532;7.684;2022-10-16T08:21:20;100266.59;;;21.25;60.70
70468;BME280;57934;51.532;7.684;2022-10-16T08:23:50;100268.00;;;22.60;56.21
70468;BME280;57934;51.532;7.684;2022-10-16T08:26:16;100270.59;;;22.96;54.26
70468;BME280;57934;51.532;7.684;2022-10-16T08:28:42;100266.84;;;22.92;53.18
70468;BME280;57934;51.532;7.684;2022-10-16T08:31:13;100280.56;;;23.40;51.76
70468;BME280;57934;51.532;7.684;2022-10-16T08:33:42;100285.25;;;23.64;51.02
70468;BME280;57934;51.532;7.684;2022-10-16T08:36:10;100292.78;;;23.67;50.65
70468;BME280;57934;51.532;7.684;2022-10-16T08:38:37;100290.88;;;23.28;51.23
70468;BME280;57934;51.532;7.684;2022-10-16T08:46:52;100302.13;;;24.14;49.56
70468;BME280;57934;51.532;7.684;2022-10-16T08:49:22;100309.97;;;24.44;48.15
70468;BME280;57934;51.532;7.684;2022-10-16T08:51:51;100311.13;;;24.86;47.65
70468;BME280;57934;51.532;7.684;2022-10-16T08:54:37;100315.03;;;24.17;47.92
70468;BME280;57934;51.532;7.684;2022-10-16T08:57:21;100326.72;;;24.41;47.78
70468;BME280;57934;51.532;7.684;2022-10-16T08:59:48;100329.84;;;25.26;46.23
70468;BME280;57934;51.532;7.684;2022-10-16T09:02:35;100335.81;;;24.45;46.06
70468;BME280;57934;51.532;7.684;2022-10-16T09:05:33;100340.81;;;25.10;46.09
70468;BME280;57934;51.532;7.684;2022-10-16T09:21:31;100357.59;;;25.50;43.70
70468;BME280;57934;51.532;7.684;2022-10-16T09:24:09;100356.50;;;26.40;42.23
70468;BME280;57934;51.532;7.684;2022-10-16T09:26:37;100352.84;;;25.80;42.02
70468;BME280;57934;51.532;7.684;2022-10-16T09:29:03;100345.59;;;25.80;42.96
70468;BME280;57934;51.532;7.684;2022-10-16T09:31:29;100343.06;;;25.46;43.74
70468;BME280;57934;51.532;7.684;2022-10-16T09:33:58;100340.75;;;24.91;43.41
70468;BME280;57934;51.532;7.684;2022-10-16T09:36:27;100352.31;;;24.39;44.27
70468;BME280;57934;51.532;7.684;2022-10-16T09:39:08;100343.34;;;23.80;45.05
70468;BME280;57934;51.532;7.684;2022-10-16T09:41:40;100357.97;;;24.08;45.53
70468;BME280;57934;51.532;7.684;2022-10-16T09:44:33;100360.47;;;24.63;46.29
70468;BME280;57934;51.532;7.684;2022-10-16T09:47:14;100371.94;;;24.10;45.60
70468;BME280;57934;51.532;7.684;2022-10-16T09:50:00;100364.47;;;22.93;47.56
70468;BME280;57934;51.532;7.684;2022-10-16T09:52:29;100364.00;;;23.45;46.69
70468;BME280;57934;51.532;7.684;2022-10-16T09:55:00;100370.88;;;23.67;46.81
70468;BME280;57934;51.532;7.684;2022-10-16T09:57:27;100375.75;;;23.00;47.70
70468;BME280;57934;51.532;7.684;2022-10-16T09:59:58;100371.34;;;21.46;50.49
70468;BME280;57934;51.532;7.684;2022-10-16T10:04:53;100381.94;;;20.08;54.26
70468;BME280;57934;51.532;7.684;2022-10-16T10:07:24;100375.66;;;19.70;55.48
70468;BME280;57934;51.532;7.684;2022-10-16T10:09:52;100373.53;;;19.50;57.44
70468;BME280;57934;51.532;7.684;2022-10-16T10:12:24;100378.03;;;19.67;56.79
70468;BME280;57934;51.532;7.684;2022-10-16T10:14:52;100376.66;;;19.64;57.75
70468;BME280;57934;51.532;7.684;2022-10-16T10:17:24;100378.84;;;19.94;56.88
70468;BME280;57934;51.532;7.684;2022-10-16T10:19:55;100377.81;;;20.27;55.70
70468;BME280;57934;51.532;7.684;2022-10-16T10:25:19;100390.38;;;20.54;54.12
70468;BME280;57934;51.532;7.684;2022-10-16T10:30:40;100391.63;;;19.21;57.00
70468;BME280;57934;51.532;7.684;2022-10-16T10:44:51;100391.22;;;19.73;58.11
70468;BME280;57934;51.532;7.684;2022-10-16T10:50:57;100391.38;;;19.89;56.01
70468;BME280;57934;51.532;7.684;2022-10-16T10:53:35;100400.75;;;19.91;57.11
70468;BME280;57934;51.532;7.684;2022-10-16T10:56:39;100395.84;;;20.42;56.33
70468;BME280;57934;51.532;7.684;2022-10-16T10:59:15;100395.69;;;22.22;51.60
70468;BME280;57934;51.532;7.684;2022-10-16T11:01:54;100391.25;;;25.15;43.89
70468;BME280;57934;51.532;7.684;2022-10-16T11:04:58;100387.06;;;27.01;39.50
70468;BME280;57934;51.532;7.684;2022-10-16T11:07:40;100391.16;;;26.85;38.69
70468;BME280;57934;51.532;7.684;2022-10-16T11:10:15;100388.59;;;28.07;37.00
70468;BME280;57934;51.532;7.684;2022-10-16T11:12:46;100391.38;;;28.16;36.38
70468;BME280;57934;51.532;7.684;2022-10-16T11:15:21;100401.69;;;27.55;37.04
70468;BME280;57934;51.532;7.684;2022-10-16T11:18:11;100392.19;;;28.17;36.10
70468;BME280;57934;51.532;7.684;2022-10-16T11:23:23;100387.75;;;30.71;32.65
70468;BME280;57934;51.532;7.684;2022-10-16T11:25:51;100387.91;;;30.83;31.42
70468;BME280;57934;51.532;7.684;2022-10-16T11:28:38;100388.34;;;31.23;30.51
70468;BME280;57934;51.532;7.684;2022-10-16T11:34:12;100395.53;;;28.67;34.36
70468;BME280;57934;51.532;7.684;2022-10-16T11:36:48;100399.25;;;29.68;32.75
70468;BME280;57934;51.532;7.684;2022-10-16T11:39:22;100398.19;;;29.21;32.38
70468;BME280;57934;51.532;7.684;2022-10-16T11:42:02;100401.72;;;26.02;38.05
70468;BME280;57934;51.532;7.684;2022-10-16T11:44:54;100396.22;;;23.61;42.76
70468;BME280;57934;51.532;7.684;2022-10-16T11:47:43;100390.28;;;22.17;46.27
70468;BME280;57934;51.532;7.684;2022-10-16T11:51:06;100392.97;;;24.76;41.98
70468;BME280;57934;51.532;7.684;2022-10-16T11:55:45;100392.81;;;26.53;38.43
70468;BME280;57934;51.532;7.684;2022-10-16T12:08:59;100396.34;;;20.34;51.86
70468;BME280;57934;51.532;7.684;2022-10-16T12:16:50;100398.81;;;19.38;55.32
70468;BME280;57934;51.532;7.684;2022-10-16T12:19:17;100401.69;;;19.36;55.37
70468;BME280;57934;51.532;7.684;2022-10-16T12:21:45;100407.81;;;19.31;55.55
70468;BME280;57934;51.532;7.684;2022-10-16T12:24:27;100408.59;;;19.32;56.54
70468;BME280;57934;51.532;7.684;2022-10-16T12:26:55;100400.63;;;19.15;56.00
70468;BME280;57934;51.532;7.684;2022-10-16T12:29:40;100405.28;;;19.03;56.52
70468;BME280;57934;51.532;7.684;2022-10-16T12:32:43;100411.66;;;19.02;55.78
70468;BME280;57934;51.532;7.684;2022-10-16T12:35:28;100411.94;;;19.00;55.17
70468;BME280;57934;51.532;7.684;2022-10-16T12:38:27;100412.69;;;19.18;55.92
70468;BME280;57934;51.532;7.684;2022-10-16T12:41:09;100405.00;;;19.21;55.16
70468;BME280;57934;51.532;7.684;2022-10-16T12:43:41;100400.25;;;19.06;56.29
70468;BME280;57934;51.532;7.684;2022-10-16T12:48:42;100419.06;;;18.95;57.55
70468;BME280;57934;51.532;7.684;2022-10-16T12:53:59;100414.56;;;19.17;55.60
70468;BME280;57934;51.532;7.684;2022-10-16T12:56:41;100423.91;;;19.37;55.93
70468;BME280;57934;51.532;7.684;2022-10-16T12:59:21;100412.09;;;19.33;54.83
70468;BME280;57934;51.532;7.684;2022-10-16T13:02:31;100417.06;;;19.24;55.92
70468;BME280;57934;51.532;7.684;2022-10-16T13:05:02;100422.09;;;19.20;54.99
70468;BME280;57934;51.532;7.684;2022-10-16T13:10:41;100426.31;;;19.16;55.13
70468;BME280;57934;51.532;7.684;2022-10-16T13:16:04;100435.06;;;19.12;56.33
70468;BME280;57934;51.532;7.684;2022-10-16T13:21:16;100428.63;;;19.51;54.95
70468;BME280;57934;51.532;7.684;2022-10-16T13:24:09;100429.94;;;19.66;54.99
70468;BME280;57934;51.532;7.684;2022-10-16T13:26:53;100434.66;;;19.81;54.59
70468;BME280;57934;51.532;7.684;2022-10-16T13:29:22;100431.22;;;19.85;54.55
70468;BME280;57934;51.532;7.684;2022-10-16T13:31:48;100430.75;;;19.66;54.32
70468;BME280;57934;51.532;7.684;2022-10-16T13:34:18;100426.22;;;19.50;54.03
70468;BME280;57934;51.532;7.684;2022-10-16T13:36:49;100441.19;;;19.51;55.18
70468;BME280;57934;51.532;7.684;2022-10-16T13:39:26;100433.41;;;19.66;55.32
70468;BME280;57934;51.532;7.684;2022-10-16T13:42:10;100428.59;;;19.68;55.66
70468;BME280;57934;51.532;7.684;2022-10-16T13:44:50;100424.44;;;19.55;55.35
70468;BME280;57934;51.532;7.684;2022-10-16T13:47:27;100428.84;;;19.45;55.46
70468;BME280;57934;51.532;7.684;2022-10-16T13:50:02;100439.47;;;19.40;56.07
70468;BME280;57934;51.532;7.684;2022-10-16T13:52:29;100447.94;;;19.15;56.46
70468;BME280;57934;51.532;7.684;2022-10-16T13:54:55;100451.53;;;18.87;57.04
70468;BME280;57934;51.532;7.684;2022-10-16T13:57:25;100460.47;;;18.75;57.05
70468;BME280;57934;51.532;7.684;2022-10-16T13:59:51;100458.47;;;18.71;57.36
70468;BME280;57934;51.532;7.684;2022-10-16T14:02:35;100454.28;;;18.92;56.28
70468;BME280;57934;51.532;7.684;2022-10-16T14:05:04;100443.50;;;19.03;55.33
70468;BME280;57934;51.532;7.684;2022-10-16T14:07:34;100447.38;;;19.13;54.80
70468;BME280;57934;51.532;7.684;2022-10-16T14:10:04;100453.63;;;19.18;55.84
70468;BME280;57934;51.532;7.684;2022-10-16T14:12:31;100451.19;;;19.17;55.38
70468;BME280;57934;51.532;7.684;2022-10-16T14:14:58;100451.44;;;19.15;55.76
70468;BME280;57934;51.532;7.684;2022-10-16T14:19:55;100430.53;;;18.95;55.89
70468;BME280;57934;51.532;7.684;2022-10-16T14:22:36;100433.47;;;18.77;57.28
70468;BME280;57934;51.532;7.684;2022-10-16T14:25:21;100431.84;;;18.59;58.07
70468;BME280;57934;51.532;7.684;2022-10-16T14:28:13;100439.03;;;18.58;58.86
70468;BME280;57934;51.532;7.684;2022-10-16T14:30:57;100441.06;;;18.68;59.42
70468;BME280;57934;51.532;7.684;2022-10-16T14:36:13;100450.31;;;18.77;58.96
70468;BME280;57934;51.532;7.684;2022-10-16T14:38:43;100444.31;;;18.70;58.40
70468;BME280;57934;51.532;7.684;2022-10-16T14:41:14;100454.91;;;18.65;59.15
70468;BME280;57934;51.532;7.684;2022-10-16T14:43:42;100465.66;;;18.70;59.02
70468;BME280;57934;51.532;7.684;2022-10-16T14:46:13;100457.09;;;18.68;59.40
70468;BME280;57934;51.532;7.684;2022-10-16T14:48:46;100470.78;;;18.55;59.84
70468;BME280;57934;51.532;7.684;2022-10-16T14:51:15;100466.34;;;18.32;60.13
70468;BME280;57934;51.532;7.684;2022-10-16T14:53:41;100465.41;;;18.09;61.11